Time;durP1;ratioP1;P1;durP2;ratioP2;P2;SDS_P1;SDS_P2;PMS_P1;PMS_P2;Temp;Humidity;BMP_temperature;BMP_pressure;BME280_temperature;BME280_humidity;BME280_pressure;Samples;Min_cycle;Max_cycle;Signal;HPM_P1;HPM_P2
2023/05/03 00:01:10;;;;;;;5.87;3.20;;;11.50;92.70;;;;;;5043859;28;20323;-34
2023/05/03 00:03:39;;;;;;;6.00;3.20;;;11.50;92.70;;;;;;5041419;28;20230;-34
2023/05/03 00:06:10;;;;;;;4.13;2.93;;;11.40;92.60;;;;;;5043207;28;20242;-34
2023/05/03 00:08:38;;;;;;;4.77;3.10;;;11.40;92.70;;;;;;5033205;28;20698;-34
2023/05/03 00:11:10;;;;;;;6.37;3.07;;;11.40;92.70;;;;;;5037997;28;20262;-34
2023/05/03 00:13:40;;;;;;;6.07;3.17;;;11.40;92.70;;;;;;5034408;28;20303;-34
2023/05/03 00:16:09;;;;;;;6.67;3.30;;;11.30;92.70;;;;;;5024300;28;20219;-34
2023/05/03 00:18:39;;;;;;;5.03;3.13;;;11.30;92.80;;;;;;5029461;28;20223;-34
2023/05/03 00:21:06;;;;;;;6.10;3.37;;;11.30;92.70;;;;;;5044930;28;20299;-34
2023/05/03 00:23:36;;;;;;;6.53;3.30;;;11.30;92.80;;;;;;5040228;28;20221;-34
2023/05/03 00:26:05;;;;;;;6.93;3.33;;;11.20;92.70;;;;;;5025495;28;20215;-34
2023/05/03 00:28:35;;;;;;;6.40;3.10;;;11.20;92.90;;;;;;5040678;28;20768;-34
2023/05/03 00:31:08;;;;;;;7.97;3.47;;;11.10;92.80;;;;;;5044358;28;20196;-34
2023/05/03 00:33:40;;;;;;;7.30;3.60;;;11.00;92.90;;;;;;5044260;28;20331;-34
2023/05/03 00:36:10;;;;;;;6.80;3.20;;;11.00;92.90;;;;;;5043548;28;20234;-34
2023/05/03 00:38:40;;;;;;;5.73;2.93;;;11.00;92.80;;;;;;5043965;28;20299;-34
2023/05/03 00:41:10;;;;;;;4.93;2.97;;;10.90;92.80;;;;;;5044059;28;20295;-34
2023/05/03 00:43:39;;;;;;;8.80;3.53;;;10.90;92.80;;;;;;5025751;28;20327;-34
2023/05/03 00:46:10;;;;;;;5.17;2.73;;;10.90;92.80;;;;;;5043404;28;20200;-34
2023/05/03 00:48:47;;;;;;;6.77;3.07;;;10.90;92.70;;;;;;5043036;28;20215;-34
2023/05/03 00:51:17;;;;;;;5.90;3.37;;;10.80;92.70;;;;;;5042546;28;20196;-34
2023/05/03 00:53:50;;;;;;;8.80;3.43;;;10.80;92.70;;;;;;5027827;28;20812;-34
2023/05/03 00:56:24;;;;;;;4.50;2.87;;;10.80;92.70;;;;;;5005477;28;1105542;-34
2023/05/03 00:58:52;;;;;;;5.10;3.20;;;10.80;92.70;;;;;;5033039;28;20204;-34
2023/05/03 01:01:19;;;;;;;3.47;2.77;;;10.80;92.70;;;;;;5032878;28;20207;-34
2023/05/03 01:03:47;;;;;;;5.40;3.13;;;10.80;92.80;;;;;;5027456;28;20599;-34
2023/05/03 01:06:38;;;;;;;4.73;3.07;;;10.80;92.80;;;;;;5032694;28;20701;-34
2023/05/03 01:09:36;;;;;;;7.23;3.37;;;10.70;92.80;;;;;;5034201;28;20667;-34
2023/05/03 01:12:03;;;;;;;6.23;2.70;;;10.70;92.80;;;;;;5043802;28;20216;-34
2023/05/03 01:15:04;;;;;;;7.63;3.00;;;10.70;92.70;;;;;;5034704;28;20303;-34
2023/05/03 01:17:40;;;;;;;6.50;3.07;;;10.60;92.90;;;;;;5033519;28;20746;-34
2023/05/03 01:20:15;;;;;;;7.40;3.13;;;10.60;92.90;;;;;;5041910;28;20334;-34
2023/05/03 01:22:57;;;;;;;5.47;2.70;;;10.60;92.90;;;;;;5042691;28;20596;-34
2023/05/03 01:25:27;;;;;;;5.93;2.87;;;10.50;92.80;;;;;;5036365;28;20322;-34
2023/05/03 01:27:58;;;;;;;6.33;3.23;;;10.50;92.70;;;;;;5043163;28;20307;-34
2023/05/03 01:30:27;;;;;;;6.17;3.30;;;10.50;92.70;;;;;;5041743;28;20637;-35
2023/05/03 01:32:58;;;;;;;6.03;2.90;;;10.50;92.70;;;;;;5037309;28;20768;-34
2023/05/03 01:35:46;;;;;;;6.10;3.17;;;10.50;92.80;;;;;;5025521;28;20212;-34
2023/05/03 01:38:15;;;;;;;6.97;3.27;;;10.50;92.80;;;;;;5023007;28;20307;-34
2023/05/03 01:40:57;;;;;;;6.77;3.43;;;10.40;92.80;;;;;;5022640;28;20674;-34
2023/05/03 01:43:26;;;;;;;6.93;3.83;;;10.40;92.90;;;;;;5021836;28;20205;-34
2023/05/03 01:45:57;;;;;;;5.33;3.53;;;10.40;92.90;;;;;;5036573;28;21064;-34
2023/05/03 01:48:24;;;;;;;10.60;3.70;;;10.30;92.80;;;;;;5040038;28;20705;-34
2023/05/03 01:50:52;;;;;;;8.43;3.57;;;10.30;93.00;;;;;;5030883;28;20201;-34
2023/05/03 01:53:19;;;;;;;8.03;4.00;;;10.30;92.80;;;;;;5039952;28;20665;-34
2023/05/03 01:55:48;;;;;;;5.33;3.33;;;10.30;92.70;;;;;;5040255;28;20487;-34
2023/05/03 01:58:18;;;;;;;6.30;3.87;;;10.20;92.70;;;;;;5042000;28;20726;-35
2023/05/03 02:00:48;;;;;;;6.60;4.07;;;10.20;92.80;;;;;;5027543;28;20219;-34
2023/05/03 02:03:18;;;;;;;8.17;3.83;;;10.20;92.80;;;;;;5023912;28;20286;-34
2023/05/03 02:05:45;;;;;;;7.93;3.90;;;10.20;92.80;;;;;;5023274;28;20629;-34
2023/05/03 02:08:15;;;;;;;7.00;4.03;;;10.10;92.70;;;;;;5022870;28;20204;-34
2023/05/03 02:10:47;;;;;;;5.60;3.67;;;10.10;92.80;;;;;;5043209;28;20580;-34
2023/05/03 02:13:15;;;;;;;7.97;4.30;;;10.10;92.80;;;;;;5043384;28;20304;-34
2023/05/03 02:15:47;;;;;;;7.67;3.90;;;10.00;92.70;;;;;;5042383;28;20212;-34
2023/05/03 02:18:15;;;;;;;9.73;4.13;;;10.00;92.60;;;;;;5042847;28;20235;-34
2023/05/03 02:20:45;;;;;;;6.17;3.67;;;9.90;93.20;;;;;;5043141;28;20200;-34
2023/05/03 02:23:15;;;;;;;7.67;4.30;;;9.90;93.20;;;;;;5042916;28;20240;-34
2023/05/03 02:25:44;;;;;;;7.07;3.87;;;9.90;93.20;;;;;;5035519;28;20223;-34
2023/05/03 02:28:11;;;;;;;5.37;3.33;;;9.90;93.30;;;;;;5042720;28;20204;-34
2023/05/03 02:30:41;;;;;;;7.47;3.80;;;9.80;93.30;;;;;;5031699;28;20722;-34
2023/05/03 02:33:11;;;;;;;5.10;3.33;;;9.80;93.30;;;;;;5023392;28;20201;-34
2023/05/03 02:35:38;;;;;;;7.17;4.00;;;9.80;93.20;;;;;;5036054;28;20251;-34
2023/05/03 02:38:08;;;;;;;9.13;3.87;;;9.80;93.50;;;;;;5023169;28;20204;-34
2023/05/03 02:40:38;;;;;;;7.00;3.90;;;9.70;93.20;;;;;;5023365;28;20307;-34
2023/05/03 02:43:07;;;;;;;9.60;4.00;;;9.70;93.20;;;;;;5040041;28;20208;-34
2023/05/03 02:45:39;;;;;;;7.33;3.63;;;9.70;93.40;;;;;;5040031;28;20242;-34
2023/05/03 02:48:11;;;;;;;6.30;3.30;;;9.60;93.20;;;;;;5040719;28;20291;-34
2023/05/03 02:50:39;;;;;;;6.80;3.93;;;9.60;93.30;;;;;;5043015;28;20623;-35
2023/05/03 02:53:06;;;;;;;5.13;3.50;;;9.60;93.30;;;;;;5041552;28;20291;-34
2023/05/03 02:55:38;;;;;;;7.47;4.30;;;9.60;93.30;;;;;;5041320;28;20200;-34
2023/05/03 02:58:05;;;;;;;9.50;4.27;;;9.60;93.30;;;;;;5032089;28;20216;-34
2023/05/03 03:00:35;;;;;;;6.87;4.17;;;9.50;93.30;;;;;;5029559;28;20294;-34
2023/05/03 03:03:04;;;;;;;5.47;3.83;;;9.60;93.30;;;;;;5042411;28;20231;-34
2023/05/03 03:05:32;;;;;;;6.97;4.20;;;9.50;93.20;;;;;;5041724;28;20230;-34
2023/05/03 03:07:59;;;;;;;7.73;3.93;;;9.50;93.40;;;;;;5041723;28;20219;-34
2023/05/03 03:10:26;;;;;;;5.13;4.10;;;9.50;93.40;;;;;;5038610;28;20204;-34
2023/05/03 03:12:56;;;;;;;4.97;3.60;;;9.50;93.40;;;;;;5022793;28;20615;-34
2023/05/03 03:15:26;;;;;;;7.50;4.17;;;9.50;93.40;;;;;;5022798;28;20312;-34
2023/05/03 03:17:56;;;;;;;5.90;3.70;;;9.40;93.30;;;;;;5023520;28;20212;-34
2023/05/03 03:20:26;;;;;;;6.60;4.10;;;9.40;93.40;;;;;;5023309;28;20200;-34
2023/05/03 03:22:53;;;;;;;7.27;4.27;;;9.40;93.30;;;;;;5027671;28;20323;-34
2023/05/03 03:25:23;;;;;;;7.20;4.20;;;9.40;93.30;;;;;;5032612;28;20638;-35
2023/05/03 03:27:50;;;;;;;6.50;3.83;;;9.40;93.50;;;;;;5042715;28;20205;-34
2023/05/03 03:30:19;;;;;;;9.87;4.47;;;9.30;93.40;;;;;;5023048;28;20243;-34
2023/05/03 03:32:48;;;;;;;5.87;4.07;;;9.30;93.30;;;;;;5021735;28;20220;-35
2023/05/03 03:35:16;;;;;;;8.23;4.00;;;9.30;93.40;;;;;;5031086;28;20560;-34
2023/05/03 03:37:43;;;;;;;7.83;3.90;;;9.20;93.40;;;;;;5021245;28;20243;-34
2023/05/03 03:40:13;;;;;;;8.90;4.27;;;9.20;93.40;;;;;;5020211;28;20205;-34
2023/05/03 03:42:43;;;;;;;8.00;4.40;;;9.10;93.40;;;;;;5022895;28;20221;-34
2023/05/03 03:45:10;;;;;;;8.37;4.33;;;9.10;93.40;;;;;;5021681;28;20591;-34
2023/05/03 03:47:41;;;;;;;7.83;4.70;;;9.10;93.40;;;;;;5038689;28;20315;-34
2023/05/03 03:50:09;;;;;;;6.53;3.93;;;9.10;93.40;;;;;;5031930;28;20212;-34
2023/05/03 03:52:36;;;;;;;6.63;4.77;;;9.00;93.50;;;;;;5027086;28;20236;-34
2023/05/03 03:55:06;;;;;;;7.40;4.17;;;9.00;93.50;;;;;;5023453;28;20314;-34
2023/05/03 03:57:36;;;;;;;6.33;4.20;;;9.00;93.40;;;;;;5028270;28;20263;-34
2023/05/03 04:00:04;;;;;;;7.70;4.60;;;9.00;93.40;;;;;;5025059;28;20204;-34
2023/05/03 04:02:32;;;;;;;5.33;4.33;;;9.00;93.70;;;;;;5028838;28;20295;-34
2023/05/03 04:05:02;;;;;;;5.93;4.10;;;9.00;93.50;;;;;;5031309;28;20289;-34
2023/05/03 04:07:29;;;;;;;9.03;4.50;;;9.00;93.50;;;;;;5037830;28;20244;-34
2023/05/03 04:10:01;;;;;;;10.53;5.07;;;9.00;93.50;;;;;;5039050;28;20485;-34
2023/05/03 04:12:33;;;;;;;9.53;4.70;;;9.00;93.50;;;;;;5036450;28;20204;-34
2023/05/03 04:15:06;;;;;;;7.70;4.77;;;9.00;93.50;;;;;;5036440;28;20212;-34
2023/05/03 04:17:35;;;;;;;8.07;4.70;;;9.00;93.50;;;;;;5032082;28;20223;-34
2023/05/03 04:20:09;;;;;;;5.67;4.57;;;9.00;93.60;;;;;;5024540;28;20208;-34
2023/05/03 04:22:40;;;;;;;6.17;4.43;;;9.00;93.60;;;;;;5026372;28;20208;-34
2023/05/03 04:25:13;;;;;;;7.27;4.70;;;8.90;93.50;;;;;;5032394;28;20669;-34
2023/05/03 04:27:41;;;;;;;9.37;5.47;;;9.00;93.60;;;;;;5048022;28;20600;-35
2023/05/03 04:30:12;;;;;;;8.13;5.47;;;8.90;93.70;;;;;;5027770;28;20309;-34
2023/05/03 04:32:43;;;;;;;6.83;5.03;;;8.90;93.60;;;;;;5027948;28;20224;-34
2023/05/03 04:35:11;;;;;;;7.03;4.60;;;8.90;93.60;;;;;;5029717;28;20270;-35
2023/05/03 04:37:40;;;;;;;7.83;4.83;;;8.90;93.60;;;;;;5043624;28;20281;-34
2023/05/03 04:40:11;;;;;;;10.00;5.70;;;8.90;93.70;;;;;;5028883;28;20239;-34
2023/05/03 04:42:44;;;;;;;8.60;5.33;;;8.80;93.70;;;;;;5028129;28;20709;-35
2023/05/03 04:45:12;;;;;;;8.40;5.57;;;8.80;93.70;;;;;;5029077;28;20247;-34
2023/05/03 04:47:45;;;;;;;8.57;5.30;;;8.80;93.60;;;;;;5033193;28;20270;-34
2023/05/03 04:50:15;;;;;;;6.80;5.20;;;8.80;93.60;;;;;;5044336;28;20602;-34
2023/05/03 04:52:45;;;;;;;9.03;5.80;;;8.80;93.70;;;;;;5037261;28;20332;-35
2023/05/03 04:55:15;;;;;;;12.97;8.50;;;8.80;93.60;;;;;;5035314;28;20247;-34
2023/05/03 04:57:45;;;;;;;12.23;8.20;;;8.80;93.80;;;;;;5024932;28;20338;-34
2023/05/03 05:00:15;;;;;;;9.60;6.63;;;8.80;93.70;;;;;;5031136;28;20236;-34
2023/05/03 05:02:49;;;;;;;10.77;6.40;;;8.80;93.90;;;;;;5037831;28;20204;-35
2023/05/03 05:05:19;;;;;;;8.03;5.40;;;8.80;93.90;;;;;;5038328;28;20230;-34
2023/05/03 05:07:46;;;;;;;7.10;5.63;;;8.80;94.10;;;;;;5042057;28;20208;-34
2023/05/03 05:10:16;;;;;;;10.97;6.00;;;8.80;94.00;;;;;;5026994;28;20291;-34
2023/05/03 05:12:50;;;;;;;8.57;5.60;;;8.70;94.30;;;;;;5045562;28;20216;-35
2023/05/03 05:15:19;;;;;;;7.83;5.67;;;8.70;94.00;;;;;;5041560;28;20677;-35
2023/05/03 05:17:53;;;;;;;10.90;6.23;;;8.70;93.90;;;;;;5042927;28;20698;-34
2023/05/03 05:20:27;;;;;;;11.33;6.27;;;8.70;94.00;;;;;;5036049;28;20227;-35
2023/05/03 05:22:55;;;;;;;7.87;5.63;;;8.80;94.00;;;;;;5031798;28;20629;-34
2023/05/03 05:25:22;;;;;;;13.73;6.33;;;8.70;94.00;;;;;;5024084;28;20289;-35
2023/05/03 05:27:49;;;;;;;9.57;5.90;;;8.80;94.00;;;;;;5031924;28;20204;-35
2023/05/03 05:30:19;;;;;;;10.77;5.67;;;8.80;94.00;;;;;;5024214;28;20311;-34
2023/05/03 05:32:48;;;;;;;8.57;5.60;;;8.80;94.10;;;;;;5039664;28;20220;-34
2023/05/03 05:35:23;;;;;;;13.00;6.57;;;8.80;94.00;;;;;;5034591;28;20208;-35
2023/05/03 05:37:55;;;;;;;9.17;5.80;;;8.80;94.50;;;;;;5035556;28;20307;-35
2023/05/03 05:40:23;;;;;;;10.10;6.23;;;8.80;94.30;;;;;;5042977;28;20250;-35
2023/05/03 05:42:50;;;;;;;9.77;5.87;;;8.80;94.40;;;;;;5042125;28;20204;-34
2023/05/03 05:45:22;;;;;;;8.30;5.57;;;8.90;94.20;;;;;;5039165;28;20244;-35
2023/05/03 05:47:50;;;;;;;9.27;5.97;;;8.90;94.20;;;;;;5036453;28;20205;-35
2023/05/03 05:50:22;;;;;;;8.13;5.87;;;8.90;94.20;;;;;;5034523;28;20566;-34
2023/05/03 05:52:51;;;;;;;8.20;5.93;;;9.00;94.30;;;;;;5037264;28;20192;-35
2023/05/03 05:55:22;;;;;;;11.63;6.80;;;9.00;94.40;;;;;;5030837;28;20228;-34
2023/05/03 05:57:49;;;;;;;11.73;6.90;;;9.10;94.40;;;;;;5031981;28;20390;-35
2023/05/03 06:00:18;;;;;;;14.73;7.00;;;9.10;94.40;;;;;;5021573;28;20590;-35
2023/05/03 06:02:47;;;;;;;13.87;6.67;;;9.20;94.70;;;;;;5041864;28;20266;-34
2023/05/03 06:05:15;;;;;;;13.30;6.83;;;9.20;94.40;;;;;;5026396;28;20235;-29
2023/05/03 06:07:42;;;;;;;10.07;6.53;;;9.30;94.50;;;;;;5041641;28;20261;-29
2023/05/03 06:10:10;;;;;;;9.53;6.77;;;9.30;94.50;;;;;;5042786;28;20387;-29
2023/05/03 06:12:39;;;;;;;12.00;6.80;;;9.40;94.50;;;;;;5024402;28;20200;-29
2023/05/03 06:15:07;;;;;;;10.60;6.73;;;9.40;94.90;;;;;;5024710;28;20216;-29
2023/05/03 06:17:36;;;;;;;7.70;5.90;;;9.50;94.60;;;;;;5028705;28;20292;-29
2023/05/03 06:20:03;;;;;;;10.87;6.43;;;9.50;94.60;;;;;;5029093;28;20235;-29
2023/05/03 06:22:31;;;;;;;12.77;6.97;;;9.60;94.70;;;;;;5034406;28;20295;-29
2023/05/03 06:25:03;;;;;;;13.23;6.73;;;9.60;94.90;;;;;;5023566;28;20589;-29
2023/05/03 06:27:30;;;;;;;10.50;6.93;;;9.70;94.90;;;;;;5036149;28;20737;-29
2023/05/03 06:29:58;;;;;;;9.53;7.00;;;9.70;94.80;;;;;;5036733;28;20207;-29
2023/05/03 06:32:27;;;;;;;14.37;6.60;;;9.80;94.90;;;;;;5021571;28;20721;-29
2023/05/03 06:35:00;;;;;;;9.67;6.50;;;9.80;94.90;;;;;;5026656;28;20548;-29
2023/05/03 06:37:32;;;;;;;10.90;6.57;;;9.90;95.00;;;;;;5034006;28;20222;-29
2023/05/03 06:39:59;;;;;;;9.53;6.53;;;10.00;94.50;;;;;;5029064;28;20224;-30
2023/05/03 06:42:30;;;;;;;8.33;6.30;;;10.00;94.50;;;;;;5042630;28;20224;-29
2023/05/03 06:44:57;;;;;;;11.97;7.10;;;10.10;94.50;;;;;;5038096;28;20273;-29
2023/05/03 06:47:26;;;;;;;11.13;6.53;;;10.10;94.60;;;;;;5039180;28;20232;-29
2023/05/03 06:49:54;;;;;;;11.67;7.03;;;10.20;94.60;;;;;;5030032;28;20205;-29
2023/05/03 06:52:26;;;;;;;14.93;7.07;;;10.20;94.60;;;;;;5022186;28;20610;-29
2023/05/03 06:54:58;;;;;;;10.50;7.40;;;10.30;94.70;;;;;;5036886;28;20197;-29
2023/05/03 06:57:27;;;;;;;9.27;6.73;;;10.30;94.70;;;;;;5024486;28;20326;-29
2023/05/03 06:59:57;;;;;;;11.20;6.53;;;10.40;94.80;;;;;;5025598;28;20212;-29
2023/05/03 07:02:25;;;;;;;9.87;7.43;;;10.40;94.80;;;;;;5031449;28;20212;-29
2023/05/03 07:04:53;;;;;;;12.60;7.07;;;10.50;94.90;;;;;;5032365;28;20216;-29
2023/05/03 07:07:24;;;;;;;13.30;7.73;;;10.60;94.90;;;;;;5023476;28;20259;-29
2023/05/03 07:09:52;;;;;;;11.43;7.60;;;10.60;94.90;;;;;;5037765;28;20193;-29
2023/05/03 07:12:19;;;;;;;11.97;7.40;;;10.70;95.00;;;;;;5023006;28;20863;-29
2023/05/03 07:14:46;;;;;;;12.17;7.77;;;10.80;95.00;;;;;;5027130;28;20258;-29
2023/05/03 07:17:18;;;;;;;8.53;6.67;;;10.80;95.00;;;;;;5020052;28;20312;-29
2023/05/03 07:19:48;;;;;;;14.77;8.00;;;10.90;95.10;;;;;;5028086;28;20205;-29
2023/05/03 07:22:16;;;;;;;11.70;7.37;;;10.90;95.40;;;;;;5026270;28;20218;-29
2023/05/03 07:24:43;;;;;;;10.67;7.63;;;11.00;95.20;;;;;;5040251;28;20212;-29
2023/05/03 07:27:10;;;;;;;11.73;8.03;;;11.00;95.20;;;;;;5044416;28;20221;-29
2023/05/03 07:29:42;;;;;;;12.73;7.87;;;11.10;95.20;;;;;;5032110;28;20239;-29
2023/05/03 07:32:11;;;;;;;10.03;7.33;;;11.10;95.20;;;;;;5044542;28;20196;-29
2023/05/03 07:34:38;;;;;;;14.30;7.73;;;11.20;95.30;;;;;;5037078;28;20218;-29
2023/05/03 07:37:13;;;;;;;11.63;7.93;;;11.30;95.30;;;;;;5041706;28;20200;-29
2023/05/03 07:39:44;;;;;;;11.83;7.83;;;11.30;95.30;;;;;;5037407;28;20271;-29
2023/05/03 07:42:13;;;;;;;13.47;7.53;;;11.40;95.40;;;;;;5040648;28;20287;-29
2023/05/03 07:44:43;;;;;;;8.87;7.30;;;11.40;95.40;;;;;;5041564;28;20212;-29
2023/05/03 07:47:15;;;;;;;14.57;7.97;;;11.50;95.40;;;;;;5035958;28;20248;-29
2023/05/03 07:49:43;;;;;;;12.07;7.90;;;11.50;95.50;;;;;;5022789;28;20527;-28
2023/05/03 07:52:10;;;;;;;12.60;7.73;;;11.60;95.50;;;;;;5029484;28;20200;-29
2023/05/03 07:54:37;;;;;;;12.23;7.90;;;11.70;95.60;;;;;;5023761;28;20702;-28
2023/05/03 07:57:12;;;;;;;10.20;8.37;;;11.70;95.60;;;;;;5023107;28;20695;-29
2023/05/03 07:59:42;;;;;;;11.87;7.07;;;11.80;95.70;;;;;;5022405;28;20631;-29
2023/05/03 08:02:09;;;;;;;16.47;8.13;;;11.80;95.60;;;;;;5023562;28;20208;-29
2023/05/03 08:04:41;;;;;;;13.97;8.90;;;11.90;95.70;;;;;;5027116;28;20228;-29
2023/05/03 08:07:11;;;;;;;11.60;8.60;;;11.90;95.70;;;;;;5044077;28;20256;-29
2023/05/03 08:09:38;;;;;;;11.53;8.13;;;12.00;95.70;;;;;;5036221;28;20232;-29
2023/05/03 08:12:06;;;;;;;14.97;8.57;;;12.10;95.80;;;;;;5038245;28;20205;-29
2023/05/03 08:14:36;;;;;;;15.27;8.90;;;12.10;95.80;;;;;;5032488;28;20745;-29
2023/05/03 08:17:05;;;;;;;15.10;8.97;;;12.10;95.90;;;;;;5031192;28;20312;-29
2023/05/03 08:19:35;;;;;;;16.37;9.50;;;12.20;95.90;;;;;;5041410;28;20303;-29
2023/05/03 08:22:04;;;;;;;22.13;9.27;;;12.20;95.80;;;;;;5029814;28;20856;-29
2023/05/03 08:24:33;;;;;;;15.97;8.97;;;12.30;95.80;;;;;;5029126;28;20278;-29
2023/05/03 08:27:07;;;;;;;12.07;8.40;;;12.30;95.80;;;;;;5024028;28;20227;-29
2023/05/03 08:29:36;;;;;;;16.37;9.57;;;12.40;95.90;;;;;;5028245;28;20200;-29
2023/05/03 08:32:08;;;;;;;26.83;11.10;;;12.40;96.00;;;;;;5035010;28;20306;-29
2023/05/03 08:34:35;;;;;;;17.37;9.57;;;12.50;96.00;;;;;;5042691;28;20215;-29
2023/05/03 08:37:04;;;;;;;12.20;9.13;;;12.50;95.90;;;;;;5040230;28;20291;-30
2023/05/03 08:39:32;;;;;;;13.37;9.77;;;12.60;95.90;;;;;;5037086;28;20296;-29
2023/05/03 08:42:02;;;;;;;15.70;9.67;;;12.60;95.90;;;;;;5042202;28;20686;-29
2023/05/03 08:44:43;;;;;;;16.03;10.30;;;12.70;95.90;;;;;;5041804;28;20682;-29
2023/05/03 08:47:13;;;;;;;15.03;8.97;;;12.70;96.00;;;;;;5040384;28;20760;-29
2023/05/03 08:49:42;;;;;;;14.90;9.37;;;12.80;95.90;;;;;;5021961;28;20209;-29
2023/05/03 08:52:12;;;;;;;13.97;9.03;;;12.80;95.80;;;;;;5042554;28;20296;-29
2023/05/03 08:54:40;;;;;;;18.17;9.97;;;12.90;95.90;;;;;;5032844;28;20210;-29
2023/05/03 08:57:16;;;;;;;12.43;8.30;;;12.90;95.70;;;;;;5029851;28;21070;-29
2023/05/03 08:59:55;;;;;;;14.87;9.00;;;12.80;95.80;;;;;;5023134;28;20719;-30
2023/05/03 09:02:23;;;;;;;14.33;10.30;;;12.80;95.60;;;;;;5043587;28;20212;-30
2023/05/03 09:04:51;;;;;;;13.73;9.13;;;12.90;95.60;;;;;;5025063;28;20604;-30
2023/05/03 09:07:21;;;;;;;13.00;8.07;;;12.90;95.70;;;;;;5037581;28;20227;-30
2023/05/03 09:09:48;;;;;;;16.07;8.70;;;13.00;95.80;;;;;;5042102;28;20702;-30
2023/05/03 09:12:36;;;;;;;12.13;8.97;;;13.00;95.70;;;;;;5037286;28;20453;-30
2023/05/03 09:15:05;;;;;;;14.53;9.30;;;13.10;95.60;;;;;;5032814;28;20238;-29
2023/05/03 09:17:32;;;;;;;13.70;9.00;;;13.10;95.70;;;;;;5025056;28;20696;-29
2023/05/03 09:20:02;;;;;;;12.30;8.23;;;13.20;95.90;;;;;;5023431;28;20240;-29
2023/05/03 09:22:32;;;;;;;14.87;9.60;;;13.30;96.00;;;;;;5045806;28;20304;-29
2023/05/03 09:25:00;;;;;;;12.70;8.27;;;13.30;95.90;;;;;;5027383;28;20269;-29
2023/05/03 09:27:27;;;;;;;13.70;9.02;;;13.40;95.90;;;;;;5028454;28;20661;-29
2023/05/03 09:30:16;;;;;;;12.70;8.93;;;13.40;95.90;;;;;;5035510;28;20211;-29
2023/05/03 09:32:50;;;;;;;14.67;9.43;;;13.50;96.00;;;;;;5029829;28;20272;-29
2023/05/03 09:35:18;;;;;;;13.32;8.75;;;13.60;96.00;;;;;;5036427;28;20213;-29
2023/05/03 09:37:47;;;;;;;13.20;9.52;;;13.60;96.10;;;;;;5039969;28;20197;-29
2023/05/03 09:40:20;;;;;;;12.73;8.77;;;13.60;96.00;;;;;;5043450;28;20238;-29
2023/05/03 09:43:10;;;;;;;16.48;9.98;;;13.70;96.20;;;;;;5039907;28;20204;-29
2023/05/03 09:45:38;;;;;;;12.47;10.10;;;13.70;95.90;;;;;;5039414;28;20204;-29
2023/05/03 09:48:06;;;;;;;13.80;9.80;;;13.80;95.80;;;;;;5037118;28;20213;-29
2023/05/03 09:50:35;;;;;;;17.83;10.40;;;13.80;95.90;;;;;;5030231;28;20204;-29
2023/05/03 09:53:06;;;;;;;16.37;10.20;;;13.80;95.90;;;;;;5038877;28;20228;-29
2023/05/03 09:55:36;;;;;;;11.80;9.93;;;13.90;95.90;;;;;;5030967;28;20720;-30
2023/05/03 09:58:08;;;;;;;12.80;9.63;;;13.90;96.00;;;;;;5025316;28;20229;-29
2023/05/03 10:00:37;;;;;;;11.30;9.27;;;14.00;96.10;;;;;;5034921;28;20390;-29
2023/05/03 10:03:11;;;;;;;16.43;9.10;;;14.00;96.20;;;;;;5038646;28;20232;-29
2023/05/03 10:05:50;;;;;;;11.93;8.45;;;14.10;96.20;;;;;;5033102;28;20323;-29
2023/05/03 10:08:28;;;;;;;14.50;10.00;;;14.20;96.30;;;;;;5023338;28;20589;-29
2023/05/03 10:10:56;;;;;;;15.85;9.88;;;14.20;96.30;;;;;;5031205;28;20196;-29
2023/05/03 10:13:27;;;;;;;14.53;10.00;;;14.30;96.20;;;;;;5027629;28;20211;-29
2023/05/03 10:16:05;;;;;;;14.13;9.70;;;14.30;96.30;;;;;;5026143;28;20434;-29
2023/05/03 10:18:47;;;;;;;16.20;10.48;;;14.40;96.40;;;;;;5034202;28;20676;-29
2023/05/03 10:21:24;;;;;;;14.37;10.00;;;14.40;96.20;;;;;;5039418;28;20238;-29
2023/05/03 10:24:16;;;;;;;12.13;9.80;;;14.50;96.30;;;;;;5034136;28;20260;-29
2023/05/03 10:26:51;;;;;;;14.73;10.30;;;14.50;96.30;;;;;;5027856;28;20255;-29
2023/05/03 10:29:34;;;;;;;15.30;10.20;;;14.60;96.20;;;;;;5027412;28;20241;-29
2023/05/03 10:32:03;;;;;;;14.35;10.45;;;14.60;96.30;;;;;;5021237;28;20232;-29
2023/05/03 10:34:31;;;;;;;16.80;10.75;;;14.70;96.30;;;;;;5029596;28;20414;-29
2023/05/03 10:37:07;;;;;;;12.40;9.35;;;14.70;96.30;;;;;;5030100;28;20589;-29
2023/05/03 10:39:34;;;;;;;14.77;10.23;;;14.70;96.40;;;;;;5041945;28;20849;-29
2023/05/03 10:42:07;;;;;;;13.30;9.30;;;14.80;96.20;;;;;;5022846;28;22161;-29
2023/05/03 10:44:42;;;;;;;16.35;10.68;;;14.80;96.30;;;;;;5035064;28;20212;-29
2023/05/03 10:47:15;;;;;;;10.57;9.40;;;14.80;96.30;;;;;;5023790;28;20591;-29
2023/05/03 10:49:42;;;;;;;11.07;8.55;;;14.80;96.20;;;;;;5027091;28;20212;-29
2023/05/03 10:52:35;;;;;;;12.20;8.63;;;14.90;96.40;;;;;;5036997;28;20327;-29
2023/05/03 10:55:11;;;;;;;13.13;9.02;;;15.00;96.50;;;;;;5033297;28;20200;-29
2023/05/03 10:57:47;;;;;;;13.82;9.52;;;15.00;96.40;;;;;;5024806;28;20236;-29
2023/05/03 11:00:23;;;;;;;11.23;8.88;;;15.10;96.30;;;;;;5019690;28;20204;-29
2023/05/03 11:03:17;;;;;;;11.98;9.02;;;15.20;96.50;;;;;;5014479;28;20298;-29
2023/05/03 11:05:47;;;;;;;11.57;8.63;;;15.20;96.40;;;;;;5015848;28;20295;-29
2023/05/03 11:08:22;;;;;;;14.23;8.98;;;15.30;96.50;;;;;;5035516;28;20232;-29
2023/05/03 11:10:58;;;;;;;14.07;9.98;;;15.30;96.50;;;;;;5025670;28;20196;-29
2023/05/03 11:13:28;;;;;;;15.43;10.05;;;15.40;96.30;;;;;;5037408;28;20299;-29
2023/05/03 11:15:55;;;;;;;12.05;8.75;;;15.40;96.50;;;;;;5026654;28;20214;-29
2023/05/03 11:18:26;;;;;;;13.50;9.15;;;15.40;96.60;;;;;;5035269;28;20306;-29
2023/05/03 11:20:55;;;;;;;13.95;9.80;;;15.50;96.70;;;;;;5034953;28;20211;-29
2023/05/03 11:23:30;;;;;;;13.02;8.90;;;15.50;96.50;;;;;;5020858;28;20721;-28
2023/05/03 11:25:57;;;;;;;11.82;9.20;;;15.50;96.20;;;;;;5023004;28;20211;-29
2023/05/03 11:28:27;;;;;;;13.80;9.15;;;15.60;95.50;;;;;;5022348;28;20216;-29
2023/05/03 11:30:56;;;;;;;10.70;8.32;;;15.50;95.70;;;;;;5025300;28;20209;-29
2023/05/03 11:33:29;;;;;;;10.05;7.25;;;15.60;95.60;;;;;;5023373;28;20208;-29
2023/05/03 11:36:02;;;;;;;9.60;7.15;;;15.60;96.00;;;;;;5037294;28;20296;-29
2023/05/03 11:38:33;;;;;;;8.60;6.68;;;15.60;96.00;;;;;;5027621;28;20843;-29
2023/05/03 11:41:18;;;;;;;11.25;7.10;;;15.70;96.10;;;;;;5019728;28;20192;-29
2023/05/03 11:43:50;;;;;;;12.45;7.80;;;15.70;96.20;;;;;;5031939;28;20220;-29
2023/05/03 11:46:38;;;;;;;12.82;9.38;;;15.80;96.20;;;;;;5042720;28;20221;-29
2023/05/03 11:49:07;;;;;;;13.05;8.90;;;15.80;95.80;;;;;;5042769;28;20208;-29
2023/05/03 11:51:35;;;;;;;11.35;7.97;;;15.90;95.80;;;;;;5036674;28;20222;-29
2023/05/03 11:54:03;;;;;;;15.00;8.02;;;15.90;96.10;;;;;;5044850;28;20204;-29
2023/05/03 11:56:53;;;;;;;12.23;7.40;;;16.00;96.20;;;;;;5025180;28;20245;-29
2023/05/03 11:59:36;;;;;;;14.07;8.38;;;16.00;96.30;;;;;;5035835;28;20238;-29
2023/05/03 12:02:08;;;;;;;11.93;9.02;;;16.10;96.00;;;;;;5040081;28;20208;-29
2023/05/03 12:04:39;;;;;;;11.45;8.15;;;16.10;96.30;;;;;;5033812;28;20274;-29
2023/05/03 12:07:09;;;;;;;14.35;9.50;;;16.20;96.30;;;;;;5036205;28;20607;-29
2023/05/03 12:09:39;;;;;;;14.80;9.70;;;16.20;95.90;;;;;;5042362;28;21005;-29
2023/05/03 12:12:18;;;;;;;11.48;7.95;;;16.20;96.00;;;;;;5040604;28;20211;-29
2023/05/03 12:15:00;;;;;;;10.90;7.90;;;16.30;96.40;;;;;;5038645;28;20219;-29
2023/05/03 12:17:40;;;;;;;10.65;7.28;;;16.40;96.30;;;;;;5038118;28;20232;-29
2023/05/03 12:20:17;;;;;;;11.63;8.15;;;16.50;95.60;;;;;;5041743;28;20219;-29
2023/05/03 12:23:08;;;;;;;14.00;8.63;;;16.50;96.20;;;;;;5037747;28;20234;-29
2023/05/03 12:25:39;;;;;;;11.50;8.43;;;16.50;96.20;;;;;;5038959;28;20211;-29
2023/05/03 12:28:11;;;;;;;15.13;8.27;;;16.50;95.90;;;;;;5040293;28;20224;-29
2023/05/03 12:30:51;;;;;;;11.18;8.43;;;16.50;96.00;;;;;;5034168;28;20205;-29
2023/05/03 12:33:20;;;;;;;11.82;7.68;;;16.60;96.50;;;;;;5050222;28;20391;-29
2023/05/03 12:35:54;;;;;;;12.10;8.70;;;16.70;96.00;;;;;;5055158;28;20212;-29
2023/05/03 12:38:30;;;;;;;13.70;8.35;;;16.70;95.70;;;;;;5029700;28;20355;-28
2023/05/03 12:41:02;;;;;;;12.57;9.32;;;16.70;95.80;;;;;;5040731;28;20204;-29
2023/05/03 12:43:35;;;;;;;10.18;7.50;;;16.70;96.00;;;;;;5040032;28;20326;-29
2023/05/03 12:46:05;;;;;;;10.38;7.72;;;16.80;96.20;;;;;;5035888;28;20208;-28
2023/05/03 12:48:52;;;;;;;10.63;8.25;;;16.90;96.40;;;;;;5034326;28;20240;-29
2023/05/03 12:51:20;;;;;;;12.93;9.02;;;16.90;96.30;;;;;;5049471;28;20851;-28
2023/05/03 12:53:52;;;;;;;15.32;9.18;;;17.00;96.30;;;;;;5036753;28;20231;-29
2023/05/03 12:56:23;;;;;;;10.63;8.10;;;17.00;95.80;;;;;;5041711;28;20248;-29
2023/05/03 12:58:52;;;;;;;13.93;9.75;;;17.00;96.10;;;;;;5041336;28;20215;-29
2023/05/03 13:01:39;;;;;;;12.27;8.10;;;17.00;95.50;;;;;;5043032;28;20215;-29
2023/05/03 13:04:12;;;;;;;12.10;8.35;;;17.10;95.70;;;;;;5040269;28;20216;-29